sensor_id;sensor_type;location;lat;lon;timestamp;pressure;altitude;pressure_sealevel;temperature;humidity
34081;BME280;20358;50.272;19.026;2023-05-25T00:00:56;98773.88;;;10.05;64.70
34081;BME280;20358;50.272;19.026;2023-05-25T00:04:12;98767.19;;;10.00;65.23
34081;BME280;20358;50.272;19.026;2023-05-25T00:07:28;98772.16;;;10.04;64.98
34081;BME280;20358;50.272;19.026;2023-05-25T00:10:41;98769.44;;;10.06;64.83
34081;BME280;20358;50.272;19.026;2023-05-25T00:13:54;98773.13;;;10.03;64.59
34081;BME280;20358;50.272;19.026;2023-05-25T00:17:05;98768.97;;;9.99;65.39
34081;BME280;20358;50.272;19.026;2023-05-25T00:20:23;98720.38;;;9.76;65.15
34081;BME280;20358;50.272;19.026;2023-05-25T00:23:34;98782.53;;;10.07;64.66
34081;BME280;20358;50.272;19.026;2023-05-25T00:26:44;98777.22;;;9.95;64.47
34081;BME280;20358;50.272;19.026;2023-05-25T00:29:54;98785.63;;;9.87;64.49
34081;BME280;20358;50.272;19.026;2023-05-25T00:33:04;98789.13;;;9.88;64.68
34081;BME280;20358;50.272;19.026;2023-05-25T00:36:21;98775.69;;;9.78;64.47
34081;BME280;20358;50.272;19.026;2023-05-25T00:39:30;98776.31;;;9.81;64.54
34081;BME280;20358;50.272;19.026;2023-05-25T00:42:41;98780.53;;;9.84;64.73
34081;BME280;20358;50.272;19.026;2023-05-25T00:45:51;98779.50;;;9.87;64.45
34081;BME280;20358;50.272;19.026;2023-05-25T00:49:02;98771.50;;;9.88;64.84
34081;BME280;20358;50.272;19.026;2023-05-25T00:52:19;98718.59;;;9.50;64.08
34081;BME280;20358;50.272;19.026;2023-05-25T00:55:37;98773.31;;;9.73;64.31
34081;BME280;20358;50.272;19.026;2023-05-25T00:58:54;98780.72;;;9.81;64.53
34081;BME280;20358;50.272;19.026;2023-05-25T01:02:08;98764.72;;;9.84;64.24
34081;BME280;20358;50.272;19.026;2023-05-25T01:05:31;98768.31;;;9.83;64.39
34081;BME280;20358;50.272;19.026;2023-05-25T01:08:52;98773.97;;;9.77;64.56
34081;BME280;20358;50.272;19.026;2023-05-25T01:12:07;98785.38;;;9.77;64.34
34081;BME280;20358;50.272;19.026;2023-05-25T01:15:20;98795.06;;;9.77;64.20
34081;BME280;20358;50.272;19.026;2023-05-25T01:18:33;98787.34;;;9.74;65.00
34081;BME280;20358;50.272;19.026;2023-05-25T01:22:02;98790.97;;;9.73;64.62
34081;BME280;20358;50.272;19.026;2023-05-25T01:25:21;98771.09;;;9.67;64.61
34081;BME280;20358;50.272;19.026;2023-05-25T01:28:48;98776.44;;;9.66;65.32
34081;BME280;20358;50.272;19.026;2023-05-25T01:32:03;98782.41;;;9.55;65.32
34081;BME280;20358;50.272;19.026;2023-05-25T01:35:16;98796.16;;;9.60;65.36
34081;BME280;20358;50.272;19.026;2023-05-25T01:38:32;98791.84;;;9.59;64.91
34081;BME280;20358;50.272;19.026;2023-05-25T01:41:49;98786.09;;;9.53;65.28
34081;BME280;20358;50.272;19.026;2023-05-25T01:45:02;98787.59;;;9.57;65.14
34081;BME280;20358;50.272;19.026;2023-05-25T01:48:19;98789.28;;;9.58;65.68
34081;BME280;20358;50.272;19.026;2023-05-25T01:51:42;98781.91;;;9.63;65.63
34081;BME280;20358;50.272;19.026;2023-05-25T01:55:11;98786.63;;;9.72;65.00
34081;BME280;20358;50.272;19.026;2023-05-25T01:58:27;98779.06;;;9.80;64.60
34081;BME280;20358;50.272;19.026;2023-05-25T02:01:42;98782.88;;;9.89;65.09
34081;BME280;20358;50.272;19.026;2023-05-25T02:04:59;98774.69;;;9.93;64.80
34081;BME280;20358;50.272;19.026;2023-05-25T02:08:07;98766.22;;;9.88;64.74
34081;BME280;20358;50.272;19.026;2023-05-25T02:11:20;98769.78;;;9.87;65.17
34081;BME280;20358;50.272;19.026;2023-05-25T02:14:30;98768.94;;;9.87;64.82
34081;BME280;20358;50.272;19.026;2023-05-25T02:17:39;98762.63;;;9.89;64.78
34081;BME280;20358;50.272;19.026;2023-05-25T02:20:49;98772.97;;;9.92;64.94
34081;BME280;20358;50.272;19.026;2023-05-25T02:24:01;98755.88;;;9.85;65.00
34081;BME280;20358;50.272;19.026;2023-05-25T02:27:19;98766.78;;;9.93;64.96
34081;BME280;20358;50.272;19.026;2023-05-25T02:30:32;98774.56;;;9.95;65.30
34081;BME280;20358;50.272;19.026;2023-05-25T02:33:41;98776.81;;;10.01;64.32
34081;BME280;20358;50.272;19.026;2023-05-25T02:36:52;98777.34;;;10.06;64.48
34081;BME280;20358;50.272;19.026;2023-05-25T02:40:04;98775.22;;;9.98;64.02
34081;BME280;20358;50.272;19.026;2023-05-25T02:43:19;98758.50;;;9.85;64.88
34081;BME280;20358;50.272;19.026;2023-05-25T02:46:31;98757.53;;;9.86;64.53
34081;BME280;20358;50.272;19.026;2023-05-25T02:49:41;98769.22;;;9.96;64.34
34081;BME280;20358;50.272;19.026;2023-05-25T02:52:51;98781.56;;;9.96;63.96
34081;BME280;20358;50.272;19.026;2023-05-25T02:56:02;98782.97;;;9.87;64.30
34081;BME280;20358;50.272;19.026;2023-05-25T02:59:18;98770.19;;;9.81;64.60
34081;BME280;20358;50.272;19.026;2023-05-25T03:02:32;98763.63;;;9.74;64.75
34081;BME280;20358;50.272;19.026;2023-05-25T03:05:43;98768.34;;;9.69;65.33
34081;BME280;20358;50.272;19.026;2023-05-25T03:08:53;98764.84;;;9.68;64.63
34081;BME280;20358;50.272;19.026;2023-05-25T03:12:06;98773.72;;;9.67;65.16
34081;BME280;20358;50.272;19.026;2023-05-25T03:15:24;98765.72;;;9.69;64.66
34081;BME280;20358;50.272;19.026;2023-05-25T03:18:33;98769.75;;;9.74;65.01
34081;BME280;20358;50.272;19.026;2023-05-25T03:21:44;98770.69;;;9.73;64.74
34081;BME280;20358;50.272;19.026;2023-05-25T03:24:57;98772.69;;;9.70;64.45
34081;BME280;20358;50.272;19.026;2023-05-25T03:28:12;98772.88;;;9.67;64.55
34081;BME280;20358;50.272;19.026;2023-05-25T03:31:29;98710.06;;;9.33;64.60
34081;BME280;20358;50.272;19.026;2023-05-25T03:34:39;98776.06;;;9.72;65.21
34081;BME280;20358;50.272;19.026;2023-05-25T03:37:53;98777.78;;;9.73;65.17
34081;BME280;20358;50.272;19.026;2023-05-25T03:41:07;98762.13;;;9.70;65.22
34081;BME280;20358;50.272;19.026;2023-05-25T03:44:16;98782.00;;;9.75;64.76
34081;BME280;20358;50.272;19.026;2023-05-25T03:47:30;98782.44;;;9.82;64.80
34081;BME280;20358;50.272;19.026;2023-05-25T03:50:41;98778.63;;;9.86;64.43
34081;BME280;20358;50.272;19.026;2023-05-25T03:53:52;98781.84;;;9.91;64.99
34081;BME280;20358;50.272;19.026;2023-05-25T03:57:03;98789.78;;;9.91;64.80
34081;BME280;20358;50.272;19.026;2023-05-25T04:00:15;98787.94;;;9.92;64.40
34081;BME280;20358;50.272;19.026;2023-05-25T04:03:29;98792.59;;;9.88;64.69
34081;BME280;20358;50.272;19.026;2023-05-25T04:06:44;98809.00;;;9.79;64.66
34081;BME280;20358;50.272;19.026;2023-05-25T04:09:57;98796.78;;;9.78;65.08
34081;BME280;20358;50.272;19.026;2023-05-25T04:13:08;98801.50;;;9.73;65.05
34081;BME280;20358;50.272;19.026;2023-05-25T04:16:20;98802.81;;;9.66;65.43
34081;BME280;20358;50.272;19.026;2023-05-25T04:19:38;98811.69;;;9.65;65.56
34081;BME280;20358;50.272;19.026;2023-05-25T04:22:50;98815.06;;;9.67;65.43
34081;BME280;20358;50.272;19.026;2023-05-25T04:26:14;98819.25;;;9.57;65.33
34081;BME280;20358;50.272;19.026;2023-05-25T04:29:29;98806.91;;;9.57;65.39
34081;BME280;20358;50.272;19.026;2023-05-25T04:32:56;98822.03;;;9.68;64.82
34081;BME280;20358;50.272;19.026;2023-05-25T04:36:17;98829.56;;;9.74;64.93
34081;BME280;20358;50.272;19.026;2023-05-25T04:39:36;98820.59;;;9.76;64.57
34081;BME280;20358;50.272;19.026;2023-05-25T04:42:51;98822.19;;;9.79;64.83
34081;BME280;20358;50.272;19.026;2023-05-25T04:46:07;98819.97;;;9.73;64.65
34081;BME280;20358;50.272;19.026;2023-05-25T04:49:23;98827.97;;;9.71;64.92
34081;BME280;20358;50.272;19.026;2023-05-25T04:56:36;98804.16;;;9.45;64.74
34081;BME280;20358;50.272;19.026;2023-05-25T04:59:48;98834.88;;;9.60;65.13
34081;BME280;20358;50.272;19.026;2023-05-25T05:03:00;98828.09;;;9.56;65.31
34081;BME280;20358;50.272;19.026;2023-05-25T05:06:13;98834.22;;;9.56;65.99
34081;BME280;20358;50.272;19.026;2023-05-25T05:09:47;98844.09;;;9.53;65.73
34081;BME280;20358;50.272;19.026;2023-05-25T05:13:14;98804.59;;;9.39;65.27
34081;BME280;20358;50.272;19.026;2023-05-25T05:16:32;98843.16;;;9.54;65.97
34081;BME280;20358;50.272;19.026;2023-05-25T05:19:44;98832.25;;;9.46;65.60
34081;BME280;20358;50.272;19.026;2023-05-25T05:22:57;98850.88;;;9.57;65.27
34081;BME280;20358;50.272;19.026;2023-05-25T05:26:21;98844.38;;;9.62;65.24
34081;BME280;20358;50.272;19.026;2023-05-25T05:29:39;98853.09;;;9.77;65.07
34081;BME280;20358;50.272;19.026;2023-05-25T05:32:52;98744.16;;;9.21;64.69
34081;BME280;20358;50.272;19.026;2023-05-25T05:36:09;98855.72;;;9.91;64.12
34081;BME280;20358;50.272;19.026;2023-05-25T05:39:31;98860.03;;;9.92;63.73
34081;BME280;20358;50.272;19.026;2023-05-25T05:42:49;98858.91;;;9.96;64.15
34081;BME280;20358;50.272;19.026;2023-05-25T05:46:03;98821.09;;;9.69;64.26
34081;BME280;20358;50.272;19.026;2023-05-25T05:49:22;98863.34;;;9.96;64.07
34081;BME280;20358;50.272;19.026;2023-05-25T05:52:40;98858.50;;;10.02;64.54
34081;BME280;20358;50.272;19.026;2023-05-25T05:56:00;98868.88;;;10.05;64.33
34081;BME280;20358;50.272;19.026;2023-05-25T05:59:22;98873.94;;;10.08;64.32
34081;BME280;20358;50.272;19.026;2023-05-25T06:02:37;98880.94;;;10.09;64.09
34081;BME280;20358;50.272;19.026;2023-05-25T06:06:02;98870.75;;;10.03;64.29
34081;BME280;20358;50.272;19.026;2023-05-25T06:09:19;98845.75;;;9.82;64.72
34081;BME280;20358;50.272;19.026;2023-05-25T06:12:39;98882.09;;;9.91;65.09
34081;BME280;20358;50.272;19.026;2023-05-25T06:16:06;98864.31;;;9.80;65.06
34081;BME280;20358;50.272;19.026;2023-05-25T06:19:23;98873.72;;;9.84;65.50
34081;BME280;20358;50.272;19.026;2023-05-25T06:22:42;98891.41;;;9.97;64.84
34081;BME280;20358;50.272;19.026;2023-05-25T06:26:03;98892.25;;;9.97;65.26
34081;BME280;20358;50.272;19.026;2023-05-25T06:29:21;98897.16;;;10.03;65.05
34081;BME280;20358;50.272;19.026;2023-05-25T06:32:53;98895.84;;;9.96;64.97
34081;BME280;20358;50.272;19.026;2023-05-25T06:36:07;98895.00;;;9.96;65.19
34081;BME280;20358;50.272;19.026;2023-05-25T06:39:28;98875.13;;;9.90;65.84
34081;BME280;20358;50.272;19.026;2023-05-25T06:42:43;98891.22;;;10.00;64.52
34081;BME280;20358;50.272;19.026;2023-05-25T06:46:24;98899.03;;;10.01;64.85
34081;BME280;20358;50.272;19.026;2023-05-25T06:49:57;98908.38;;;9.93;64.56
34081;BME280;20358;50.272;19.026;2023-05-25T06:53:27;98901.31;;;9.93;64.33
34081;BME280;20358;50.272;19.026;2023-05-25T07:00:26;98868.19;;;9.75;64.78
34081;BME280;20358;50.272;19.026;2023-05-25T07:03:59;98913.34;;;10.11;64.37
34081;BME280;20358;50.272;19.026;2023-05-25T07:08:20;98903.34;;;10.16;64.45
34081;BME280;20358;50.272;19.026;2023-05-25T07:11:45;98920.22;;;10.14;64.67
34081;BME280;20358;50.272;19.026;2023-05-25T07:15:24;98918.06;;;10.06;64.98
34081;BME280;20358;50.272;19.026;2023-05-25T07:18:52;98911.09;;;10.05;65.00
34081;BME280;20358;50.272;19.026;2023-05-25T07:22:53;98921.44;;;10.08;64.72
34081;BME280;20358;50.272;19.026;2023-05-25T07:26:44;98929.00;;;10.14;64.31
34081;BME280;20358;50.272;19.026;2023-05-25T07:30:15;98924.06;;;10.22;64.79
34081;BME280;20358;50.272;19.026;2023-05-25T07:33:39;98931.06;;;10.23;64.14
34081;BME280;20358;50.272;19.026;2023-05-25T07:37:05;98931.22;;;10.20;63.73
34081;BME280;20358;50.272;19.026;2023-05-25T07:40:43;98907.72;;;10.03;64.33
34081;BME280;20358;50.272;19.026;2023-05-25T07:49:15;98930.84;;;10.12;63.60
34081;BME280;20358;50.272;19.026;2023-05-25T07:53:02;98886.53;;;9.91;64.56
34081;BME280;20358;50.272;19.026;2023-05-25T07:56:46;98895.19;;;9.93;63.96
34081;BME280;20358;50.272;19.026;2023-05-25T08:00:36;98941.44;;;10.26;64.09
34081;BME280;20358;50.272;19.026;2023-05-25T08:04:25;98934.06;;;10.31;63.18
34081;BME280;20358;50.272;19.026;2023-05-25T08:08:02;98908.63;;;10.16;63.35
34081;BME280;20358;50.272;19.026;2023-05-25T08:11:40;98937.25;;;10.36;63.60
34081;BME280;20358;50.272;19.026;2023-05-25T08:15:53;98935.16;;;10.41;63.35
34081;BME280;20358;50.272;19.026;2023-05-25T08:19:32;98943.31;;;10.51;63.01
34081;BME280;20358;50.272;19.026;2023-05-25T08:23:10;98935.50;;;10.50;63.45
34081;BME280;20358;50.272;19.026;2023-05-25T08:26:51;98933.41;;;10.55;63.20
34081;BME280;20358;50.272;19.026;2023-05-25T08:30:29;98934.63;;;10.63;63.20
34081;BME280;20358;50.272;19.026;2023-05-25T08:34:26;98889.34;;;10.42;63.25
34081;BME280;20358;50.272;19.026;2023-05-25T08:38:11;98928.75;;;10.85;62.35
34081;BME280;20358;50.272;19.026;2023-05-25T08:41:58;98936.41;;;11.02;62.06
34081;BME280;20358;50.272;19.026;2023-05-25T08:45:32;98922.66;;;10.97;61.58
34081;BME280;20358;50.272;19.026;2023-05-25T08:53:18;98938.75;;;11.19;61.37
34081;BME280;20358;50.272;19.026;2023-05-25T08:57:27;98923.94;;;11.17;61.14
34081;BME280;20358;50.272;19.026;2023-05-25T09:01:19;98937.28;;;11.15;61.17
34081;BME280;20358;50.272;19.026;2023-05-25T09:05:21;98902.13;;;11.00;60.72
34081;BME280;20358;50.272;19.026;2023-05-25T09:09:28;98877.19;;;10.79;61.66
34081;BME280;20358;50.272;19.026;2023-05-25T09:13:38;98944.69;;;11.10;61.56
34081;BME280;20358;50.272;19.026;2023-05-25T09:17:30;98938.38;;;10.86;62.42
34081;BME280;20358;50.272;19.026;2023-05-25T09:21:17;98938.53;;;10.97;62.17
34081;BME280;20358;50.272;19.026;2023-05-25T09:24:49;98942.84;;;11.11;62.35
34081;BME280;20358;50.272;19.026;2023-05-25T09:28:49;98939.03;;;11.41;61.22
34081;BME280;20358;50.272;19.026;2023-05-25T09:32:44;98937.00;;;11.57;60.65
34081;BME280;20358;50.272;19.026;2023-05-25T09:37:12;98938.50;;;11.61;60.32
34081;BME280;20358;50.272;19.026;2023-05-25T09:40:46;98943.47;;;11.53;61.34
34081;BME280;20358;50.272;19.026;2023-05-25T09:44:32;98951.72;;;11.49;61.29
34081;BME280;20358;50.272;19.026;2023-05-25T09:48:18;98918.28;;;11.35;60.96
34081;BME280;20358;50.272;19.026;2023-05-25T09:52:19;98946.63;;;11.58;61.14
34081;BME280;20358;50.272;19.026;2023-05-25T10:00:29;98939.63;;;11.57;61.00
34081;BME280;20358;50.272;19.026;2023-05-25T10:15:11;98938.38;;;11.88;60.11
34081;BME280;20358;50.272;19.026;2023-05-25T10:19:23;98893.91;;;11.68;59.37
34081;BME280;20358;50.272;19.026;2023-05-25T10:23:30;98916.34;;;11.88;59.67
34081;BME280;20358;50.272;19.026;2023-05-25T10:27:22;98946.59;;;12.21;59.06
34081;BME280;20358;50.272;19.026;2023-05-25T10:31:21;98938.75;;;12.07;58.69
34081;BME280;20358;50.272;19.026;2023-05-25T10:35:18;98945.94;;;12.18;59.09
34081;BME280;20358;50.272;19.026;2023-05-25T10:39:39;98927.75;;;12.01;59.59
34081;BME280;20358;50.272;19.026;2023-05-25T10:48:49;98944.66;;;12.11;59.33
34081;BME280;20358;50.272;19.026;2023-05-25T10:52:41;98927.06;;;12.10;59.35
34081;BME280;20358;50.272;19.026;2023-05-25T10:56:26;98906.69;;;11.87;58.80
34081;BME280;20358;50.272;19.026;2023-05-25T11:00:15;98952.81;;;12.08;59.03
34081;BME280;20358;50.272;19.026;2023-05-25T11:04:20;98951.63;;;12.12;59.28
34081;BME280;20358;50.272;19.026;2023-05-25T11:08:07;98945.09;;;12.05;58.94
34081;BME280;20358;50.272;19.026;2023-05-25T11:12:25;98902.38;;;11.86;59.64
34081;BME280;20358;50.272;19.026;2023-05-25T11:17:22;98874.34;;;12.07;58.74
34081;BME280;20358;50.272;19.026;2023-05-25T11:26:59;98933.31;;;12.93;57.51
34081;BME280;20358;50.272;19.026;2023-05-25T11:30:33;98924.50;;;13.16;56.74
34081;BME280;20358;50.272;19.026;2023-05-25T11:34:21;98888.63;;;12.88;56.52
34081;BME280;20358;50.272;19.026;2023-05-25T11:38:16;98899.75;;;13.04;56.74
34081;BME280;20358;50.272;19.026;2023-05-25T11:42:27;98924.28;;;13.19;57.17
34081;BME280;20358;50.272;19.026;2023-05-25T11:46:13;98937.81;;;13.27;56.08
34081;BME280;20358;50.272;19.026;2023-05-25T11:53:56;98898.47;;;13.10;56.86
34081;BME280;20358;50.272;19.026;2023-05-25T11:57:29;98933.22;;;13.18;56.98
34081;BME280;20358;50.272;19.026;2023-05-25T12:01:11;98930.94;;;13.01;57.39
34081;BME280;20358;50.272;19.026;2023-05-25T12:04:53;98922.78;;;13.04;57.52
34081;BME280;20358;50.272;19.026;2023-05-25T12:08:31;98865.59;;;12.88;57.48
34081;BME280;20358;50.272;19.026;2023-05-25T12:12:08;98889.53;;;13.11;57.74
34081;BME280;20358;50.272;19.026;2023-05-25T12:15:36;98911.50;;;13.13;57.56
34081;BME280;20358;50.272;19.026;2023-05-25T12:19:11;98907.16;;;13.12;57.68
34081;BME280;20358;50.272;19.026;2023-05-25T12:22:41;98907.78;;;13.26;57.88
34081;BME280;20358;50.272;19.026;2023-05-25T12:26:17;98903.59;;;13.35;57.78
34081;BME280;20358;50.272;19.026;2023-05-25T12:29:48;98900.94;;;13.46;57.00
34081;BME280;20358;50.272;19.026;2023-05-25T12:37:02;98905.94;;;15.33;54.84
34081;BME280;20358;50.272;19.026;2023-05-25T12:40:41;98903.63;;;16.00;53.36
34081;BME280;20358;50.272;19.026;2023-05-25T12:46:22;98898.09;;;15.41;52.30
34081;BME280;20358;50.272;19.026;2023-05-25T12:50:10;98900.94;;;14.98;53.46
34081;BME280;20358;50.272;19.026;2023-05-25T12:53:50;98897.94;;;14.60;54.31
34081;BME280;20358;50.272;19.026;2023-05-25T12:57:33;98897.53;;;14.33;55.16
34081;BME280;20358;50.272;19.026;2023-05-25T13:01:02;98879.94;;;14.09;55.39
34081;BME280;20358;50.272;19.026;2023-05-25T13:04:42;98902.53;;;14.04;56.36
34081;BME280;20358;50.272;19.026;2023-05-25T13:08:11;98904.94;;;13.96;56.04
34081;BME280;20358;50.272;19.026;2023-05-25T13:11:45;98904.34;;;13.92;56.58
34081;BME280;20358;50.272;19.026;2023-05-25T13:15:11;98893.72;;;13.81;56.29
34081;BME280;20358;50.272;19.026;2023-05-25T13:18:46;98884.19;;;13.68;56.99
34081;BME280;20358;50.272;19.026;2023-05-25T13:22:14;98882.97;;;13.61;56.90
34081;BME280;20358;50.272;19.026;2023-05-25T13:25:49;98889.63;;;13.77;57.50
34081;BME280;20358;50.272;19.026;2023-05-25T13:29:23;98884.19;;;13.68;57.19
34081;BME280;20358;50.272;19.026;2023-05-25T13:32:58;98855.81;;;13.57;57.98
34081;BME280;20358;50.272;19.026;2023-05-25T13:36:27;98880.34;;;13.72;57.46
34081;BME280;20358;50.272;19.026;2023-05-25T13:40:07;98742.97;;;12.86;57.80
34081;BME280;20358;50.272;19.026;2023-05-25T13:43:36;98887.94;;;13.54;58.26
34081;BME280;20358;50.272;19.026;2023-05-25T13:47:11;98876.94;;;13.47;57.81
34081;BME280;20358;50.272;19.026;2023-05-25T13:50:37;98883.81;;;13.39;58.55
34081;BME280;20358;50.272;19.026;2023-05-25T13:54:13;98884.28;;;13.33;58.11
34081;BME280;20358;50.272;19.026;2023-05-25T13:57:51;98882.59;;;13.32;58.33
34081;BME280;20358;50.272;19.026;2023-05-25T14:01:26;98822.16;;;13.02;58.86
34081;BME280;20358;50.272;19.026;2023-05-25T14:04:54;98874.88;;;13.40;58.21
34081;BME280;20358;50.272;19.026;2023-05-25T14:08:30;98859.69;;;13.31;58.25
34081;BME280;20358;50.272;19.026;2023-05-25T14:11:57;98864.50;;;13.37;58.64
34081;BME280;20358;50.272;19.026;2023-05-25T14:15:33;98869.72;;;13.38;58.16
34081;BME280;20358;50.272;19.026;2023-05-25T14:19:00;98872.47;;;13.37;58.14
34081;BME280;20358;50.272;19.026;2023-05-25T14:22:35;98872.84;;;13.32;58.74
34081;BME280;20358;50.272;19.026;2023-05-25T14:26:01;98864.41;;;13.38;58.50
34081;BME280;20358;50.272;19.026;2023-05-25T14:29:35;98856.56;;;13.48;58.67
34081;BME280;20358;50.272;19.026;2023-05-25T14:33:07;98861.16;;;13.46;58.49
34081;BME280;20358;50.272;19.026;2023-05-25T14:36:42;98838.22;;;13.34;58.75
34081;BME280;20358;50.272;19.026;2023-05-25T14:40:10;98861.63;;;13.40;59.18
34081;BME280;20358;50.272;19.026;2023-05-25T14:43:47;98855.09;;;13.44;59.35
34081;BME280;20358;50.272;19.026;2023-05-25T14:47:13;98866.22;;;13.38;58.64
34081;BME280;20358;50.272;19.026;2023-05-25T14:50:50;98863.06;;;13.33;58.87
34081;BME280;20358;50.272;19.026;2023-05-25T14:54:17;98859.94;;;13.28;58.74
34081;BME280;20358;50.272;19.026;2023-05-25T14:57:51;98838.69;;;13.17;59.32
34081;BME280;20358;50.272;19.026;2023-05-25T15:01:17;98863.50;;;13.16;59.63
34081;BME280;20358;50.272;19.026;2023-05-25T15:04:52;98861.34;;;13.10;59.10
34081;BME280;20358;50.272;19.026;2023-05-25T15:08:20;98857.00;;;13.09;59.08
34081;BME280;20358;50.272;19.026;2023-05-25T15:12:00;98851.97;;;13.17;59.77
34081;BME280;20358;50.272;19.026;2023-05-25T15:15:28;98852.69;;;13.30;58.91
34081;BME280;20358;50.272;19.026;2023-05-25T15:19:03;98815.91;;;13.14;58.68
34081;BME280;20358;50.272;19.026;2023-05-25T15:22:31;98855.94;;;13.44;58.07
34081;BME280;20358;50.272;19.026;2023-05-25T15:26:07;98844.50;;;13.44;58.71
34081;BME280;20358;50.272;19.026;2023-05-25T15:29:34;98844.72;;;13.52;58.57
34081;BME280;20358;50.272;19.026;2023-05-25T15:33:09;98843.06;;;13.51;58.64
34081;BME280;20358;50.272;19.026;2023-05-25T15:36:57;98838.94;;;13.47;58.24
34081;BME280;20358;50.272;19.026;2023-05-25T15:40:31;98845.22;;;13.46;58.43
34081;BME280;20358;50.272;19.026;2023-05-25T15:44:01;98811.34;;;13.27;58.76
34081;BME280;20358;50.272;19.026;2023-05-25T15:47:36;98841.72;;;13.45;58.76
34081;BME280;20358;50.272;19.026;2023-05-25T15:51:03;98841.59;;;13.58;58.32
34081;BME280;20358;50.272;19.026;2023-05-25T15:54:37;98731.88;;;13.04;57.74
34081;BME280;20358;50.272;19.026;2023-05-25T15:58:04;98822.56;;;13.53;57.49
34081;BME280;20358;50.272;19.026;2023-05-25T16:01:42;98841.22;;;13.63;58.30
34081;BME280;20358;50.272;19.026;2023-05-25T16:05:17;98840.03;;;13.67;57.74
34081;BME280;20358;50.272;19.026;2023-05-25T16:08:53;98818.66;;;13.68;57.72
34081;BME280;20358;50.272;19.026;2023-05-25T16:12:20;98802.41;;;13.62;58.27
34081;BME280;20358;50.272;19.026;2023-05-25T16:15:55;98821.81;;;13.73;58.31
34081;BME280;20358;50.272;19.026;2023-05-25T16:19:28;98833.97;;;13.87;57.59
34081;BME280;20358;50.272;19.026;2023-05-25T16:23:04;98813.34;;;13.79;57.88
34081;BME280;20358;50.272;19.026;2023-05-25T16:26:31;98829.50;;;13.87;58.04
34081;BME280;20358;50.272;19.026;2023-05-25T16:30:07;98816.25;;;13.87;58.27
34081;BME280;20358;50.272;19.026;2023-05-25T16:33:34;98832.16;;;13.87;58.34
34081;BME280;20358;50.272;19.026;2023-05-25T16:37:12;98820.84;;;13.74;57.85
34081;BME280;20358;50.272;19.026;2023-05-25T16:40:37;98823.00;;;13.80;58.68
34081;BME280;20358;50.272;19.026;2023-05-25T16:44:12;98780.00;;;13.43;58.53
34081;BME280;20358;50.272;19.026;2023-05-25T16:47:38;98822.78;;;13.61;58.64
34081;BME280;20358;50.272;19.026;2023-05-25T16:51:12;98823.88;;;13.47;59.11
34081;BME280;20358;50.272;19.026;2023-05-25T16:54:41;98817.25;;;13.42;59.75
34081;BME280;20358;50.272;19.026;2023-05-25T16:58:15;98781.44;;;13.25;59.91
34081;BME280;20358;50.272;19.026;2023-05-25T17:01:41;98795.31;;;13.40;59.97
34081;BME280;20358;50.272;19.026;2023-05-25T17:05:15;98816.25;;;13.65;59.87
34081;BME280;20358;50.272;19.026;2023-05-25T17:08:42;98815.53;;;13.63;58.75
34081;BME280;20358;50.272;19.026;2023-05-25T17:12:21;98821.56;;;13.65;58.95
34081;BME280;20358;50.272;19.026;2023-05-25T17:15:47;98824.84;;;13.58;59.28
34081;BME280;20358;50.272;19.026;2023-05-25T17:19:22;98825.69;;;13.58;59.11
34081;BME280;20358;50.272;19.026;2023-05-25T17:22:48;98830.03;;;13.59;58.48
34081;BME280;20358;50.272;19.026;2023-05-25T17:26:23;98832.41;;;13.62;58.71
34081;BME280;20358;50.272;19.026;2023-05-25T17:29:53;98821.56;;;13.65;59.56
34081;BME280;20358;50.272;19.026;2023-05-25T17:33:29;98824.84;;;13.69;59.17
34081;BME280;20358;50.272;19.026;2023-05-25T17:36:55;98826.63;;;13.68;59.43
34081;BME280;20358;50.272;19.026;2023-05-25T17:40:29;98825.06;;;13.66;59.50
34081;BME280;20358;50.272;19.026;2023-05-25T17:43:56;98823.50;;;13.63;59.53
34081;BME280;20358;50.272;19.026;2023-05-25T17:47:33;98828.81;;;13.63;60.09
34081;BME280;20358;50.272;19.026;2023-05-25T17:50:59;98825.22;;;13.64;59.73
34081;BME280;20358;50.272;19.026;2023-05-25T17:54:33;98827.84;;;13.64;60.67
34081;BME280;20358;50.272;19.026;2023-05-25T17:58:04;98732.59;;;13.06;59.75
34081;BME280;20358;50.272;19.026;2023-05-25T18:01:40;98825.78;;;13.68;60.52
34081;BME280;20358;50.272;19.026;2023-05-25T18:05:12;98822.06;;;13.59;60.10
34081;BME280;20358;50.272;19.026;2023-05-25T18:08:46;98712.13;;;12.97;60.48
34081;BME280;20358;50.272;19.026;2023-05-25T18:12:21;98833.78;;;13.45;60.97
34081;BME280;20358;50.272;19.026;2023-05-25T18:15:57;98828.34;;;13.25;61.68
34081;BME280;20358;50.272;19.026;2023-05-25T18:19:24;98806.81;;;13.06;61.39
34081;BME280;20358;50.272;19.026;2023-05-25T18:23:03;98821.44;;;13.11;62.32
34081;BME280;20358;50.272;19.026;2023-05-25T18:26:29;98829.97;;;13.04;62.34
34081;BME280;20358;50.272;19.026;2023-05-25T18:30:05;98833.81;;;13.00;62.76
34081;BME280;20358;50.272;19.026;2023-05-25T18:33:32;98836.00;;;12.95;62.73
34081;BME280;20358;50.272;19.026;2023-05-25T18:37:07;98843.19;;;12.93;62.58
34081;BME280;20358;50.272;19.026;2023-05-25T18:40:37;98789.44;;;12.68;62.74
34081;BME280;20358;50.272;19.026;2023-05-25T18:44:12;98848.03;;;12.99;62.90
34081;BME280;20358;50.272;19.026;2023-05-25T18:47:38;98853.09;;;13.02;62.92
34081;BME280;20358;50.272;19.026;2023-05-25T18:51:12;98849.47;;;13.03;62.53
34081;BME280;20358;50.272;19.026;2023-05-25T18:54:40;98848.19;;;13.08;62.57
34081;BME280;20358;50.272;19.026;2023-05-25T18:58:17;98846.16;;;13.12;62.41
34081;BME280;20358;50.272;19.026;2023-05-25T19:01:44;98809.94;;;12.88;62.68
34081;BME280;20358;50.272;19.026;2023-05-25T19:05:19;98828.50;;;12.88;62.74
34081;BME280;20358;50.272;19.026;2023-05-25T19:08:46;98858.41;;;13.02;62.95
34081;BME280;20358;50.272;19.026;2023-05-25T19:12:21;98858.66;;;12.99;62.60